sensor_id;sensor_type;location;lat;lon;timestamp;temperature;humidity
40253;DHT22;25972;51.854;4.534;2024-02-16T00:02:30;11.60;99.90
40253;DHT22;25972;51.854;4.534;2024-02-16T00:05:02;11.60;99.90
40253;DHT22;25972;51.854;4.534;2024-02-16T00:07:36;11.60;99.90
40253;DHT22;25972;51.854;4.534;2024-02-16T00:10:06;11.60;99.90
40253;DHT22;25972;51.854;4.534;2024-02-16T00:12:33;11.60;99.90
40253;DHT22;25972;51.854;4.534;2024-02-16T00:14:59;11.60;99.90
40253;DHT22;25972;51.854;4.534;2024-02-16T00:17:26;11.60;99.90
40253;DHT22;25972;51.854;4.534;2024-02-16T00:19:57;11.50;99.90
40253;DHT22;25972;51.854;4.534;2024-02-16T00:22:24;11.50;99.90
40253;DHT22;25972;51.854;4.534;2024-02-16T00:24:50;11.50;99.90
40253;DHT22;25972;51.854;4.534;2024-02-16T00:27:16;11.40;99.90
40253;DHT22;25972;51.854;4.534;2024-02-16T00:29:45;11.40;99.90
40253;DHT22;25972;51.854;4.534;2024-02-16T00:32:14;11.40;99.90
40253;DHT22;25972;51.854;4.534;2024-02-16T00:34:40;11.40;99.90
40253;DHT22;25972;51.854;4.534;2024-02-16T00:37:07;11.40;99.90
40253;DHT22;25972;51.854;4.534;2024-02-16T00:39:38;11.40;99.90
40253;DHT22;25972;51.854;4.534;2024-02-16T00:42:08;11.40;99.90
40253;DHT22;25972;51.854;4.534;2024-02-16T00:44:34;11.40;99.90
40253;DHT22;25972;51.854;4.534;2024-02-16T00:47:00;11.40;99.90
40253;DHT22;25972;51.854;4.534;2024-02-16T00:49:26;11.40;99.90
40253;DHT22;25972;51.854;4.534;2024-02-16T00:51:51;11.40;99.90
40253;DHT22;25972;51.854;4.534;2024-02-16T00:54:17;11.30;99.90
40253;DHT22;25972;51.854;4.534;2024-02-16T00:56:43;11.30;99.90
40253;DHT22;25972;51.854;4.534;2024-02-16T00:59:09;11.30;99.90
40253;DHT22;25972;51.854;4.534;2024-02-16T01:01:35;11.30;99.90
40253;DHT22;25972;51.854;4.534;2024-02-16T01:04:02;11.30;99.90
40253;DHT22;25972;51.854;4.534;2024-02-16T01:06:28;11.30;99.90
40253;DHT22;25972;51.854;4.534;2024-02-16T01:08:54;11.30;99.90
40253;DHT22;25972;51.854;4.534;2024-02-16T01:11:19;11.30;99.90
40253;DHT22;25972;51.854;4.534;2024-02-16T01:13:48;11.20;99.90
40253;DHT22;25972;51.854;4.534;2024-02-16T01:16:15;11.30;99.90
40253;DHT22;25972;51.854;4.534;2024-02-16T01:18:40;11.30;99.90
40253;DHT22;25972;51.854;4.534;2024-02-16T01:21:06;11.30;99.90
40253;DHT22;25972;51.854;4.534;2024-02-16T01:23:32;11.30;99.90
40253;DHT22;25972;51.854;4.534;2024-02-16T01:25:58;11.30;99.90
40253;DHT22;25972;51.854;4.534;2024-02-16T01:28:24;11.30;99.90
40253;DHT22;25972;51.854;4.534;2024-02-16T01:30:50;11.40;99.90
40253;DHT22;25972;51.854;4.534;2024-02-16T01:33:16;11.40;99.90
40253;DHT22;25972;51.854;4.534;2024-02-16T01:35:45;11.50;99.90
40253;DHT22;25972;51.854;4.534;2024-02-16T01:38:11;11.50;99.90
40253;DHT22;25972;51.854;4.534;2024-02-16T01:40:37;11.50;99.90
40253;DHT22;25972;51.854;4.534;2024-02-16T01:43:03;11.50;99.90
40253;DHT22;25972;51.854;4.534;2024-02-16T01:45:29;11.50;99.90
40253;DHT22;25972;51.854;4.534;2024-02-16T01:47:54;11.50;99.90
40253;DHT22;25972;51.854;4.534;2024-02-16T01:50:21;11.50;99.90
40253;DHT22;25972;51.854;4.534;2024-02-16T01:52:48;11.50;99.90
40253;DHT22;25972;51.854;4.534;2024-02-16T01:55:15;11.40;99.90
40253;DHT22;25972;51.854;4.534;2024-02-16T01:57:47;11.40;99.90
40253;DHT22;25972;51.854;4.534;2024-02-16T02:00:13;11.40;99.90
40253;DHT22;25972;51.854;4.534;2024-02-16T02:02:47;11.40;99.90
40253;DHT22;25972;51.854;4.534;2024-02-16T02:05:16;11.40;99.90
40253;DHT22;25972;51.854;4.534;2024-02-16T02:07:41;11.30;99.90
40253;DHT22;25972;51.854;4.534;2024-02-16T02:10:08;11.30;99.90
40253;DHT22;25972;51.854;4.534;2024-02-16T02:12:34;11.30;99.90
40253;DHT22;25972;51.854;4.534;2024-02-16T02:15:00;11.30;99.90
40253;DHT22;25972;51.854;4.534;2024-02-16T02:17:26;11.30;99.90
40253;DHT22;25972;51.854;4.534;2024-02-16T02:19:52;11.30;99.90
40253;DHT22;25972;51.854;4.534;2024-02-16T02:22:21;11.30;99.90
40253;DHT22;25972;51.854;4.534;2024-02-16T02:24:47;11.30;99.90
40253;DHT22;25972;51.854;4.534;2024-02-16T02:27:15;11.20;99.90
40253;DHT22;25972;51.854;4.534;2024-02-16T02:29:41;11.20;99.90
40253;DHT22;25972;51.854;4.534;2024-02-16T02:32:08;11.20;99.90
40253;DHT22;25972;51.854;4.534;2024-02-16T02:34:34;11.20;99.90
40253;DHT22;25972;51.854;4.534;2024-02-16T02:37:01;11.20;99.90
40253;DHT22;25972;51.854;4.534;2024-02-16T02:39:27;11.20;99.90
40253;DHT22;25972;51.854;4.534;2024-02-16T02:41:53;11.20;99.90
40253;DHT22;25972;51.854;4.534;2024-02-16T02:44:19;11.20;99.90
40253;DHT22;25972;51.854;4.534;2024-02-16T02:46:45;11.20;99.90
40253;DHT22;25972;51.854;4.534;2024-02-16T02:49:10;11.20;99.90
40253;DHT22;25972;51.854;4.534;2024-02-16T02:51:36;11.20;99.90
40253;DHT22;25972;51.854;4.534;2024-02-16T02:54:02;11.20;99.90
40253;DHT22;25972;51.854;4.534;2024-02-16T02:56:28;11.20;99.90
40253;DHT22;25972;51.854;4.534;2024-02-16T02:58:54;11.20;99.90
40253;DHT22;25972;51.854;4.534;2024-02-16T03:01:20;11.20;99.90
40253;DHT22;25972;51.854;4.534;2024-02-16T03:03:49;11.20;99.90
40253;DHT22;25972;51.854;4.534;2024-02-16T03:06:19;11.10;99.90
40253;DHT22;25972;51.854;4.534;2024-02-16T03:08:45;11.10;99.90
40253;DHT22;25972;51.854;4.534;2024-02-16T03:11:11;11.10;99.90
40253;DHT22;25972;51.854;4.534;2024-02-16T03:13:37;11.10;99.90
40253;DHT22;25972;51.854;4.534;2024-02-16T03:16:03;11.10;99.90
40253;DHT22;25972;51.854;4.534;2024-02-16T03:18:33;11.10;99.90
40253;DHT22;25972;51.854;4.534;2024-02-16T03:20:59;11.10;99.90
40253;DHT22;25972;51.854;4.534;2024-02-16T03:23:25;11.10;99.90
40253;DHT22;25972;51.854;4.534;2024-02-16T03:25:51;11.10;99.90
40253;DHT22;25972;51.854;4.534;2024-02-16T03:28:17;11.10;99.90
40253;DHT22;25972;51.854;4.534;2024-02-16T03:30:44;11.10;99.90
40253;DHT22;25972;51.854;4.534;2024-02-16T03:33:10;11.10;99.90
40253;DHT22;25972;51.854;4.534;2024-02-16T03:35:36;11.10;99.90
40253;DHT22;25972;51.854;4.534;2024-02-16T03:38:05;11.10;99.90
40253;DHT22;25972;51.854;4.534;2024-02-16T03:40:31;11.10;99.90
40253;DHT22;25972;51.854;4.534;2024-02-16T03:42:58;11.10;99.90
40253;DHT22;25972;51.854;4.534;2024-02-16T03:45:24;11.10;99.90
40253;DHT22;25972;51.854;4.534;2024-02-16T03:47:50;11.10;99.90
40253;DHT22;25972;51.854;4.534;2024-02-16T03:50:18;11.10;99.90
40253;DHT22;25972;51.854;4.534;2024-02-16T03:52:44;11.00;99.90
40253;DHT22;25972;51.854;4.534;2024-02-16T03:55:10;11.00;99.90
40253;DHT22;25972;51.854;4.534;2024-02-16T03:57:37;11.00;99.90
40253;DHT22;25972;51.854;4.534;2024-02-16T04:00:03;11.00;99.90
40253;DHT22;25972;51.854;4.534;2024-02-16T04:02:31;10.90;99.90
40253;DHT22;25972;51.854;4.534;2024-02-16T04:04:57;11.00;99.90
40253;DHT22;25972;51.854;4.534;2024-02-16T04:07:23;11.00;99.90
40253;DHT22;25972;51.854;4.534;2024-02-16T04:09:49;11.00;99.90
40253;DHT22;25972;51.854;4.534;2024-02-16T04:12:15;10.90;99.90
40253;DHT22;25972;51.854;4.534;2024-02-16T04:14:41;11.00;99.90
40253;DHT22;25972;51.854;4.534;2024-02-16T04:17:09;10.90;99.90
40253;DHT22;25972;51.854;4.534;2024-02-16T04:19:36;10.90;99.90
40253;DHT22;25972;51.854;4.534;2024-02-16T04:22:03;10.90;99.90
40253;DHT22;25972;51.854;4.534;2024-02-16T04:24:30;10.90;99.90
40253;DHT22;25972;51.854;4.534;2024-02-16T04:26:56;10.90;99.90
40253;DHT22;25972;51.854;4.534;2024-02-16T04:29:22;10.90;99.90
40253;DHT22;25972;51.854;4.534;2024-02-16T04:31:48;10.90;99.90
40253;DHT22;25972;51.854;4.534;2024-02-16T04:34:14;10.80;99.90
40253;DHT22;25972;51.854;4.534;2024-02-16T04:36:40;10.90;99.90
40253;DHT22;25972;51.854;4.534;2024-02-16T04:39:06;10.80;99.90
40253;DHT22;25972;51.854;4.534;2024-02-16T04:41:32;10.80;99.90
40253;DHT22;25972;51.854;4.534;2024-02-16T04:43:58;10.80;99.90
40253;DHT22;25972;51.854;4.534;2024-02-16T04:46:24;10.80;99.90
40253;DHT22;25972;51.854;4.534;2024-02-16T04:48:51;10.80;99.90
40253;DHT22;25972;51.854;4.534;2024-02-16T04:51:19;10.80;99.90
40253;DHT22;25972;51.854;4.534;2024-02-16T04:53:59;10.70;99.90
40253;DHT22;25972;51.854;4.534;2024-02-16T04:56:24;10.80;99.90
40253;DHT22;25972;51.854;4.534;2024-02-16T04:58:50;10.80;99.90
40253;DHT22;25972;51.854;4.534;2024-02-16T05:01:16;10.80;99.90
40253;DHT22;25972;51.854;4.534;2024-02-16T05:03:42;10.80;99.90
40253;DHT22;25972;51.854;4.534;2024-02-16T05:06:07;10.80;99.90
40253;DHT22;25972;51.854;4.534;2024-02-16T05:08:33;10.80;99.90
40253;DHT22;25972;51.854;4.534;2024-02-16T05:11:00;10.80;99.90
40253;DHT22;25972;51.854;4.534;2024-02-16T05:13:27;10.80;99.90
40253;DHT22;25972;51.854;4.534;2024-02-16T05:15:52;10.80;99.90
40253;DHT22;25972;51.854;4.534;2024-02-16T05:18:23;10.90;99.90
40253;DHT22;25972;51.854;4.534;2024-02-16T05:20:50;10.90;99.90
40253;DHT22;25972;51.854;4.534;2024-02-16T05:23:16;10.90;99.90
40253;DHT22;25972;51.854;4.534;2024-02-16T05:25:42;11.00;99.90
40253;DHT22;25972;51.854;4.534;2024-02-16T05:28:07;11.00;99.90
40253;DHT22;25972;51.854;4.534;2024-02-16T05:30:33;11.00;99.90
40253;DHT22;25972;51.854;4.534;2024-02-16T05:32:59;11.00;99.90
40253;DHT22;25972;51.854;4.534;2024-02-16T05:35:25;11.00;99.90
40253;DHT22;25972;51.854;4.534;2024-02-16T05:37:55;11.00;99.90
40253;DHT22;25972;51.854;4.534;2024-02-16T05:40:21;11.00;99.90
40253;DHT22;25972;51.854;4.534;2024-02-16T05:42:54;11.10;99.90
40253;DHT22;25972;51.854;4.534;2024-02-16T05:45:31;11.10;99.90
40253;DHT22;25972;51.854;4.534;2024-02-16T05:47:57;11.10;99.90
40253;DHT22;25972;51.854;4.534;2024-02-16T05:50:24;11.10;99.90
40253;DHT22;25972;51.854;4.534;2024-02-16T05:52:50;11.10;99.90
40253;DHT22;25972;51.854;4.534;2024-02-16T05:55:17;11.20;99.90
40253;DHT22;25972;51.854;4.534;2024-02-16T05:57:44;11.20;99.90
40253;DHT22;25972;51.854;4.534;2024-02-16T06:00:10;11.20;99.90
40253;DHT22;25972;51.854;4.534;2024-02-16T06:02:36;11.20;99.90
40253;DHT22;25972;51.854;4.534;2024-02-16T06:05:03;11.20;99.90
40253;DHT22;25972;51.854;4.534;2024-02-16T06:07:35;11.20;99.90
40253;DHT22;25972;51.854;4.534;2024-02-16T06:10:03;11.30;99.90
40253;DHT22;25972;51.854;4.534;2024-02-16T06:12:33;11.20;99.90
40253;DHT22;25972;51.854;4.534;2024-02-16T06:14:58;11.20;99.90
40253;DHT22;25972;51.854;4.534;2024-02-16T06:17:24;11.30;99.90
40253;DHT22;25972;51.854;4.534;2024-02-16T06:19:50;11.30;99.90
40253;DHT22;25972;51.854;4.534;2024-02-16T06:22:16;11.30;99.90
40253;DHT22;25972;51.854;4.534;2024-02-16T06:24:42;11.30;99.90
40253;DHT22;25972;51.854;4.534;2024-02-16T06:27:08;11.30;99.90
40253;DHT22;25972;51.854;4.534;2024-02-16T06:29:35;11.40;99.90
40253;DHT22;25972;51.854;4.534;2024-02-16T06:32:00;11.40;99.90
40253;DHT22;25972;51.854;4.534;2024-02-16T06:34:27;11.40;99.90
40253;DHT22;25972;51.854;4.534;2024-02-16T06:36:53;11.50;99.90
40253;DHT22;25972;51.854;4.534;2024-02-16T06:39:19;11.50;99.90
40253;DHT22;25972;51.854;4.534;2024-02-16T06:41:48;11.60;99.90
40253;DHT22;25972;51.854;4.534;2024-02-16T06:44:17;11.70;99.90
40253;DHT22;25972;51.854;4.534;2024-02-16T06:46:43;11.80;99.90
40253;DHT22;25972;51.854;4.534;2024-02-16T06:49:09;11.90;99.90
40253;DHT22;25972;51.854;4.534;2024-02-16T06:51:36;11.90;99.90
40253;DHT22;25972;51.854;4.534;2024-02-16T06:54:03;11.90;99.90
40253;DHT22;25972;51.854;4.534;2024-02-16T06:56:29;12.00;99.90
40253;DHT22;25972;51.854;4.534;2024-02-16T06:58:56;12.00;99.90
40253;DHT22;25972;51.854;4.534;2024-02-16T07:01:22;12.10;99.90
40253;DHT22;25972;51.854;4.534;2024-02-16T07:03:48;12.10;99.90
40253;DHT22;25972;51.854;4.534;2024-02-16T07:06:14;12.10;99.90
40253;DHT22;25972;51.854;4.534;2024-02-16T07:08:40;12.10;99.90
40253;DHT22;25972;51.854;4.534;2024-02-16T07:11:06;12.10;99.90
40253;DHT22;25972;51.854;4.534;2024-02-16T07:13:33;12.10;99.90
40253;DHT22;25972;51.854;4.534;2024-02-16T07:15:59;12.10;99.90
40253;DHT22;25972;51.854;4.534;2024-02-16T07:18:24;12.10;99.90
40253;DHT22;25972;51.854;4.534;2024-02-16T07:20:50;12.10;99.90
40253;DHT22;25972;51.854;4.534;2024-02-16T07:23:16;12.10;99.90
40253;DHT22;25972;51.854;4.534;2024-02-16T07:25:42;12.20;99.90
40253;DHT22;25972;51.854;4.534;2024-02-16T07:28:08;12.20;99.90
40253;DHT22;25972;51.854;4.534;2024-02-16T07:30:35;12.20;99.90
40253;DHT22;25972;51.854;4.534;2024-02-16T07:33:06;12.20;99.90
40253;DHT22;25972;51.854;4.534;2024-02-16T07:35:36;12.20;99.90
40253;DHT22;25972;51.854;4.534;2024-02-16T07:38:02;12.20;99.90
40253;DHT22;25972;51.854;4.534;2024-02-16T07:40:28;12.30;99.90
40253;DHT22;25972;51.854;4.534;2024-02-16T07:42:54;12.20;99.90
40253;DHT22;25972;51.854;4.534;2024-02-16T07:45:20;12.20;99.90
40253;DHT22;25972;51.854;4.534;2024-02-16T07:47:46;12.20;99.90
40253;DHT22;25972;51.854;4.534;2024-02-16T07:50:12;12.30;99.90
40253;DHT22;25972;51.854;4.534;2024-02-16T07:52:38;12.30;99.90
40253;DHT22;25972;51.854;4.534;2024-02-16T07:55:08;12.30;99.90
40253;DHT22;25972;51.854;4.534;2024-02-16T07:57:34;12.30;99.90
40253;DHT22;25972;51.854;4.534;2024-02-16T08:00:00;12.30;99.90
40253;DHT22;25972;51.854;4.534;2024-02-16T08:02:26;12.30;99.90
40253;DHT22;25972;51.854;4.534;2024-02-16T08:04:51;12.30;99.90
40253;DHT22;25972;51.854;4.534;2024-02-16T08:07:17;12.20;99.90
40253;DHT22;25972;51.854;4.534;2024-02-16T08:09:46;12.30;99.90
40253;DHT22;25972;51.854;4.534;2024-02-16T08:12:15;12.30;99.90
40253;DHT22;25972;51.854;4.534;2024-02-16T08:14:42;12.30;99.90
40253;DHT22;25972;51.854;4.534;2024-02-16T08:17:08;12.30;99.90
40253;DHT22;25972;51.854;4.534;2024-02-16T08:19:35;12.30;99.90
40253;DHT22;25972;51.854;4.534;2024-02-16T08:22:05;12.20;99.90
40253;DHT22;25972;51.854;4.534;2024-02-16T08:24:35;12.30;99.90
40253;DHT22;25972;51.854;4.534;2024-02-16T08:27:01;12.20;99.90
40253;DHT22;25972;51.854;4.534;2024-02-16T08:29:27;12.20;99.90
40253;DHT22;25972;51.854;4.534;2024-02-16T08:31:54;12.20;99.90
40253;DHT22;25972;51.854;4.534;2024-02-16T08:34:20;12.10;99.90
40253;DHT22;25972;51.854;4.534;2024-02-16T08:36:49;12.20;99.90
40253;DHT22;25972;51.854;4.534;2024-02-16T08:39:15;12.10;99.90
40253;DHT22;25972;51.854;4.534;2024-02-16T08:41:44;12.10;99.90
40253;DHT22;25972;51.854;4.534;2024-02-16T08:44:10;12.10;99.90
40253;DHT22;25972;51.854;4.534;2024-02-16T08:46:39;12.20;99.90
40253;DHT22;25972;51.854;4.534;2024-02-16T08:49:05;12.20;99.90
40253;DHT22;25972;51.854;4.534;2024-02-16T08:51:34;12.20;99.90
40253;DHT22;25972;51.854;4.534;2024-02-16T08:54:00;12.30;99.90
40253;DHT22;25972;51.854;4.534;2024-02-16T08:56:27;12.30;99.90
40253;DHT22;25972;51.854;4.534;2024-02-16T08:58:53;12.30;99.90
40253;DHT22;25972;51.854;4.534;2024-02-16T09:01:18;12.40;99.90
40253;DHT22;25972;51.854;4.534;2024-02-16T09:03:44;12.40;99.90
40253;DHT22;25972;51.854;4.534;2024-02-16T09:06:10;12.50;99.90
40253;DHT22;25972;51.854;4.534;2024-02-16T09:08:36;12.60;99.90
40253;DHT22;25972;51.854;4.534;2024-02-16T09:11:05;12.60;99.90
40253;DHT22;25972;51.854;4.534;2024-02-16T09:13:35;12.60;99.90
40253;DHT22;25972;51.854;4.534;2024-02-16T09:16:02;12.70;99.90
40253;DHT22;25972;51.854;4.534;2024-02-16T09:18:31;12.70;99.90
40253;DHT22;25972;51.854;4.534;2024-02-16T09:20:57;12.70;99.90
40253;DHT22;25972;51.854;4.534;2024-02-16T09:23:23;12.70;99.90
40253;DHT22;25972;51.854;4.534;2024-02-16T09:25:48;12.60;99.90
40253;DHT22;25972;51.854;4.534;2024-02-16T09:28:16;12.60;99.90
40253;DHT22;25972;51.854;4.534;2024-02-16T09:30:43;12.60;99.90
40253;DHT22;25972;51.854;4.534;2024-02-16T09:33:09;12.50;99.90
40253;DHT22;25972;51.854;4.534;2024-02-16T09:35:36;12.50;99.90
40253;DHT22;25972;51.854;4.534;2024-02-16T09:38:02;12.40;99.90
40253;DHT22;25972;51.854;4.534;2024-02-16T09:40:28;12.40;99.90
40253;DHT22;25972;51.854;4.534;2024-02-16T09:42:54;12.40;99.90
40253;DHT22;25972;51.854;4.534;2024-02-16T09:45:19;12.30;99.90
40253;DHT22;25972;51.854;4.534;2024-02-16T09:47:46;12.30;99.90
40253;DHT22;25972;51.854;4.534;2024-02-16T09:50:15;12.30;99.90
40253;DHT22;25972;51.854;4.534;2024-02-16T09:52:41;12.20;99.90
40253;DHT22;25972;51.854;4.534;2024-02-16T09:55:13;12.20;99.90
40253;DHT22;25972;51.854;4.534;2024-02-16T09:57:39;12.10;99.90
40253;DHT22;25972;51.854;4.534;2024-02-16T10:00:05;12.10;99.90
40253;DHT22;25972;51.854;4.534;2024-02-16T10:02:44;12.10;99.90
40253;DHT22;25972;51.854;4.534;2024-02-16T10:05:17;12.00;99.90
40253;DHT22;25972;51.854;4.534;2024-02-16T10:07:44;12.00;99.90
40253;DHT22;25972;51.854;4.534;2024-02-16T10:10:23;12.00;99.90
40253;DHT22;25972;51.854;4.534;2024-02-16T10:12:50;12.00;99.90
40253;DHT22;25972;51.854;4.534;2024-02-16T10:15:21;11.90;99.90
40253;DHT22;25972;51.854;4.534;2024-02-16T10:18:04;11.90;99.90
40253;DHT22;25972;51.854;4.534;2024-02-16T10:20:31;11.80;99.90
40253;DHT22;25972;51.854;4.534;2024-02-16T10:23:07;11.80;99.90
40253;DHT22;25972;51.854;4.534;2024-02-16T10:25:37;11.80;99.90
40253;DHT22;25972;51.854;4.534;2024-02-16T10:28:08;11.70;99.90
40253;DHT22;25972;51.854;4.534;2024-02-16T10:30:38;11.70;99.90
40253;DHT22;25972;51.854;4.534;2024-02-16T10:33:05;11.70;99.90
40253;DHT22;25972;51.854;4.534;2024-02-16T10:35:34;11.70;99.90
40253;DHT22;25972;51.854;4.534;2024-02-16T10:38:01;11.60;99.90
40253;DHT22;25972;51.854;4.534;2024-02-16T10:40:34;11.60;99.90
40253;DHT22;25972;51.854;4.534;2024-02-16T10:43:04;11.60;99.90
40253;DHT22;25972;51.854;4.534;2024-02-16T10:45:33;11.60;99.90
40253;DHT22;25972;51.854;4.534;2024-02-16T10:47:59;11.60;99.90
40253;DHT22;25972;51.854;4.534;2024-02-16T10:50:25;11.60;99.90
40253;DHT22;25972;51.854;4.534;2024-02-16T10:52:52;11.60;99.90
40253;DHT22;25972;51.854;4.534;2024-02-16T10:55:19;11.70;99.90
40253;DHT22;25972;51.854;4.534;2024-02-16T10:57:45;11.60;99.90
40253;DHT22;25972;51.854;4.534;2024-02-16T11:00:11;11.70;99.90
40253;DHT22;25972;51.854;4.534;2024-02-16T11:02:56;11.60;99.90
40253;DHT22;25972;51.854;4.534;2024-02-16T11:05:41;11.70;99.90
40253;DHT22;25972;51.854;4.534;2024-02-16T11:08:15;11.60;99.90
40253;DHT22;25972;51.854;4.534;2024-02-16T11:10:41;11.60;99.90
40253;DHT22;25972;51.854;4.534;2024-02-16T11:13:07;11.60;99.90
40253;DHT22;25972;51.854;4.534;2024-02-16T11:15:34;11.50;99.90
40253;DHT22;25972;51.854;4.534;2024-02-16T11:18:01;11.50;99.90
40253;DHT22;25972;51.854;4.534;2024-02-16T11:20:27;11.50;99.90
40253;DHT22;25972;51.854;4.534;2024-02-16T11:22:53;11.50;99.90
40253;DHT22;25972;51.854;4.534;2024-02-16T11:25:30;11.50;99.90
40253;DHT22;25972;51.854;4.534;2024-02-16T11:27:55;11.50;99.90
40253;DHT22;25972;51.854;4.534;2024-02-16T11:30:22;11.50;99.90
40253;DHT22;25972;51.854;4.534;2024-02-16T11:32:48;11.50;99.90
40253;DHT22;25972;51.854;4.534;2024-02-16T11:35:14;11.50;99.90
40253;DHT22;25972;51.854;4.534;2024-02-16T11:37:42;11.60;99.90
40253;DHT22;25972;51.854;4.534;2024-02-16T11:40:11;11.70;99.90
40253;DHT22;25972;51.854;4.534;2024-02-16T11:42:37;11.70;99.90
40253;DHT22;25972;51.854;4.534;2024-02-16T11:45:03;11.80;99.90
40253;DHT22;25972;51.854;4.534;2024-02-16T11:47:29;11.90;99.90
40253;DHT22;25972;51.854;4.534;2024-02-16T11:50:08;11.90;99.90
40253;DHT22;25972;51.854;4.534;2024-02-16T11:52:38;12.00;99.90
40253;DHT22;25972;51.854;4.534;2024-02-16T11:55:07;12.10;99.90
40253;DHT22;25972;51.854;4.534;2024-02-16T11:57:34;12.10;99.90
40253;DHT22;25972;51.854;4.534;2024-02-16T12:00:01;12.20;99.90
40253;DHT22;25972;51.854;4.534;2024-02-16T12:02:38;12.10;99.90
40253;DHT22;25972;51.854;4.534;2024-02-16T12:05:05;12.30;99.90
40253;DHT22;25972;51.854;4.534;2024-02-16T12:07:37;12.30;99.90
40253;DHT22;25972;51.854;4.534;2024-02-16T12:10:06;12.40;99.90
40253;DHT22;25972;51.854;4.534;2024-02-16T12:12:33;12.40;99.90
40253;DHT22;25972;51.854;4.534;2024-02-16T12:14:59;12.50;99.90
40253;DHT22;25972;51.854;4.534;2024-02-16T12:17:25;12.60;99.90
40253;DHT22;25972;51.854;4.534;2024-02-16T12:19:51;12.60;99.90
40253;DHT22;25972;51.854;4.534;2024-02-16T12:22:21;12.70;99.90
40253;DHT22;25972;51.854;4.534;2024-02-16T12:24:48;12.80;99.90
40253;DHT22;25972;51.854;4.534;2024-02-16T12:27:14;12.80;99.90
40253;DHT22;25972;51.854;4.534;2024-02-16T12:29:42;12.80;99.90
40253;DHT22;25972;51.854;4.534;2024-02-16T12:32:09;12.70;99.90
40253;DHT22;25972;51.854;4.534;2024-02-16T12:34:38;12.80;99.90
40253;DHT22;25972;51.854;4.534;2024-02-16T12:37:05;12.80;99.90
40253;DHT22;25972;51.854;4.534;2024-02-16T12:39:33;12.80;99.90
40253;DHT22;25972;51.854;4.534;2024-02-16T12:41:59;12.80;99.90
40253;DHT22;25972;51.854;4.534;2024-02-16T12:44:26;12.90;99.90
40253;DHT22;25972;51.854;4.534;2024-02-16T12:46:51;12.80;99.90
40253;DHT22;25972;51.854;4.534;2024-02-16T12:49:22;12.80;99.90
40253;DHT22;25972;51.854;4.534;2024-02-16T12:51:51;12.90;99.90
40253;DHT22;25972;51.854;4.534;2024-02-16T12:54:17;12.90;99.90
40253;DHT22;25972;51.854;4.534;2024-02-16T12:56:48;12.90;99.90
40253;DHT22;25972;51.854;4.534;2024-02-16T12:59:17;12.90;99.90
40253;DHT22;25972;51.854;4.534;2024-02-16T13:01:43;12.90;99.90
40253;DHT22;25972;51.854;4.534;2024-02-16T13:04:09;12.90;99.90
40253;DHT22;25972;51.854;4.534;2024-02-16T13:06:35;12.90;99.90
40253;DHT22;25972;51.854;4.534;2024-02-16T13:09:01;12.90;99.90
40253;DHT22;25972;51.854;4.534;2024-02-16T13:11:28;12.90;99.90
40253;DHT22;25972;51.854;4.534;2024-02-16T13:13:54;12.90;99.90
40253;DHT22;25972;51.854;4.534;2024-02-16T13:16:20;12.90;99.90
40253;DHT22;25972;51.854;4.534;2024-02-16T13:18:46;13.00;99.90
40253;DHT22;25972;51.854;4.534;2024-02-16T13:21:12;13.00;99.90
40253;DHT22;25972;51.854;4.534;2024-02-16T13:23:38;13.00;99.90
40253;DHT22;25972;51.854;4.534;2024-02-16T13:26:04;13.00;99.90
40253;DHT22;25972;51.854;4.534;2024-02-16T13:28:30;13.00;99.90
40253;DHT22;25972;51.854;4.534;2024-02-16T13:30:56;13.00;99.90
40253;DHT22;25972;51.854;4.534;2024-02-16T13:33:22;13.10;99.90
40253;DHT22;25972;51.854;4.534;2024-02-16T13:35:47;13.10;99.90
40253;DHT22;25972;51.854;4.534;2024-02-16T13:38:13;13.10;99.90
40253;DHT22;25972;51.854;4.534;2024-02-16T13:40:40;13.20;99.90
40253;DHT22;25972;51.854;4.534;2024-02-16T13:43:06;13.10;99.90
40253;DHT22;25972;51.854;4.534;2024-02-16T13:45:51;13.20;99.90
40253;DHT22;25972;51.854;4.534;2024-02-16T13:48:17;13.10;99.90
40253;DHT22;25972;51.854;4.534;2024-02-16T13:50:50;13.20;99.90
40253;DHT22;25972;51.854;4.534;2024-02-16T13:53:16;13.10;99.90
40253;DHT22;25972;51.854;4.534;2024-02-16T13:55:43;13.10;99.90
40253;DHT22;25972;51.854;4.534;2024-02-16T13:58:11;13.10;99.90
40253;DHT22;25972;51.854;4.534;2024-02-16T14:00:38;13.20;99.90
40253;DHT22;25972;51.854;4.534;2024-02-16T14:03:09;13.20;99.90
40253;DHT22;25972;51.854;4.534;2024-02-16T14:05:39;13.30;99.90
40253;DHT22;25972;51.854;4.534;2024-02-16T14:08:05;13.40;99.90
40253;DHT22;25972;51.854;4.534;2024-02-16T14:10:32;13.40;99.90
40253;DHT22;25972;51.854;4.534;2024-02-16T14:12:58;13.50;99.90
40253;DHT22;25972;51.854;4.534;2024-02-16T14:15:24;13.50;99.90
40253;DHT22;25972;51.854;4.534;2024-02-16T14:17:50;13.40;99.90
40253;DHT22;25972;51.854;4.534;2024-02-16T14:20:16;13.50;99.90
40253;DHT22;25972;51.854;4.534;2024-02-16T14:22:42;13.50;99.90
40253;DHT22;25972;51.854;4.534;2024-02-16T14:25:10;13.50;99.90
40253;DHT22;25972;51.854;4.534;2024-02-16T14:27:36;13.50;99.90
40253;DHT22;25972;51.854;4.534;2024-02-16T14:30:06;13.60;99.90
40253;DHT22;25972;51.854;4.534;2024-02-16T14:32:33;13.60;99.90
40253;DHT22;25972;51.854;4.534;2024-02-16T14:34:59;13.70;99.90
40253;DHT22;25972;51.854;4.534;2024-02-16T14:37:25;13.90;99.90
40253;DHT22;25972;51.854;4.534;2024-02-16T14:39:53;13.90;99.90
40253;DHT22;25972;51.854;4.534;2024-02-16T14:42:23;13.90;99.90
40253;DHT22;25972;51.854;4.534;2024-02-16T14:44:49;14.00;99.90
40253;DHT22;25972;51.854;4.534;2024-02-16T14:47:16;14.00;99.90
40253;DHT22;25972;51.854;4.534;2024-02-16T14:49:41;14.00;99.90
40253;DHT22;25972;51.854;4.534;2024-02-16T14:52:07;13.90;99.90
40253;DHT22;25972;51.854;4.534;2024-02-16T14:54:34;13.90;99.90
40253;DHT22;25972;51.854;4.534;2024-02-16T14:57:00;14.00;99.90
40253;DHT22;25972;51.854;4.534;2024-02-16T14:59:26;14.10;99.90
40253;DHT22;25972;51.854;4.534;2024-02-16T15:01:53;14.00;99.90
40253;DHT22;25972;51.854;4.534;2024-02-16T15:04:19;13.80;99.90
40253;DHT22;25972;51.854;4.534;2024-02-16T15:06:45;13.80;99.90
40253;DHT22;25972;51.854;4.534;2024-02-16T15:09:10;13.50;99.90
40253;DHT22;25972;51.854;4.534;2024-02-16T15:11:37;13.50;99.90
40253;DHT22;25972;51.854;4.534;2024-02-16T15:14:05;13.40;99.90
40253;DHT22;25972;51.854;4.534;2024-02-16T15:16:31;13.30;99.90
40253;DHT22;25972;51.854;4.534;2024-02-16T15:18:57;13.30;99.90
40253;DHT22;25972;51.854;4.534;2024-02-16T15:21:27;13.20;99.90
40253;DHT22;25972;51.854;4.534;2024-02-16T15:23:53;13.20;99.90
40253;DHT22;25972;51.854;4.534;2024-02-16T15:26:18;13.10;99.90
40253;DHT22;25972;51.854;4.534;2024-02-16T15:28:44;13.10;99.90
40253;DHT22;25972;51.854;4.534;2024-02-16T15:31:10;13.10;99.90